Time;durP1;ratioP1;P1;durP2;ratioP2;P2;SDS_P1;SDS_P2;PMS_P1;PMS_P2;Temp;Humidity;BMP_temperature;BMP_pressure;BME280_temperature;BME280_humidity;BME280_pressure;Samples;Min_cycle;Max_cycle;Signal;HPM_P1;HPM_P2
2024/04/11 00:02:20;;;;;;;0.60;0.60;;;14.90;1.00;;;;;;5471465;26;19991;-78
2024/04/11 00:04:46;;;;;;;1.08;0.70;;;14.90;1.00;;;;;;5469202;26;20014;-78
2024/04/11 00:07:11;;;;;;;2.40;0.93;;;14.90;1.00;;;;;;5470557;26;19994;-78
2024/04/11 00:09:37;;;;;;;0.95;0.73;;;14.90;1.00;;;;;;5470473;26;19995;-78
2024/04/11 00:12:03;;;;;;;0.52;0.52;;;15.00;1.00;;;;;;5471596;26;20009;-78
2024/04/11 00:14:29;;;;;;;0.52;0.50;;;14.90;1.00;;;;;;5465372;26;20491;-78
2024/04/11 00:16:55;;;;;;;1.60;0.80;;;14.90;1.00;;;;;;5465516;26;19995;-78
2024/04/11 00:19:21;;;;;;;2.70;0.50;;;15.00;1.00;;;;;;5471665;26;19991;-78
2024/04/11 00:21:49;;;;;;;1.10;0.68;;;14.90;1.00;;;;;;5471217;26;19994;-78
2024/04/11 00:24:18;;;;;;;4.85;0.63;;;15.00;1.00;;;;;;5468518;26;20011;-78
2024/04/11 00:26:46;;;;;;;1.85;0.95;;;15.00;1.00;;;;;;5470145;26;19990;-78
2024/04/11 00:29:12;;;;;;;0.98;0.80;;;15.00;1.00;;;;;;5466781;26;20009;-78
2024/04/11 00:31:38;;;;;;;0.95;0.90;;;15.00;1.00;;;;;;5470497;26;19998;-78
2024/04/11 00:34:15;;;;;;;0.60;0.55;;;15.00;1.00;;;;;;5466112;26;19995;-78
2024/04/11 00:36:42;;;;;;;0.70;0.70;;;15.00;1.00;;;;;;5468506;26;19998;-78
2024/04/11 00:39:18;;;;;;;1.35;0.80;;;15.00;1.00;;;;;;5468314;26;20010;-78
2024/04/11 00:41:48;;;;;;;1.05;0.88;;;15.00;1.00;;;;;;5469017;26;20001;-78
2024/04/11 00:44:19;;;;;;;3.30;0.82;;;15.00;99.90;;;;;;5473058;26;19997;-78
2024/04/11 00:46:53;;;;;;;0.75;0.75;;;15.00;1.00;;;;;;5463491;26;19995;-78
2024/04/11 00:49:20;;;;;;;0.68;0.65;;;15.00;1.00;;;;;;5460968;26;19990;-78
2024/04/11 00:51:47;;;;;;;5.05;0.85;;;15.00;1.00;;;;;;5465766;26;20006;-78
2024/04/11 00:54:15;;;;;;;3.30;0.80;;;15.00;99.90;;;;;;5471800;26;20005;-77
2024/04/11 00:56:42;;;;;;;0.85;0.60;;;15.00;99.90;;;;;;5465316;26;20006;-78
2024/04/11 00:59:13;;;;;;;0.75;0.75;;;15.00;99.90;;;;;;5467545;26;20002;-78
2024/04/11 01:01:38;;;;;;;0.75;0.70;;;15.00;99.90;;;;;;5469730;26;20383;-78
2024/04/11 01:04:04;;;;;;;1.45;0.93;;;15.00;99.90;;;;;;5466012;26;19990;-78
2024/04/11 01:09:30;;;;;;;1.35;0.80;;;15.00;99.90;;;;;;5461870;26;20328;-78
2024/04/11 01:11:56;;;;;;;2.88;0.70;;;15.00;1.00;;;;;;5472367;26;20005;-78
2024/04/11 01:14:23;;;;;;;1.42;0.88;;;15.00;99.90;;;;;;5465121;26;20058;-78
2024/04/11 01:16:49;;;;;;;4.50;0.73;;;15.00;1.00;;;;;;5463542;26;19995;-78
2024/04/11 01:19:15;;;;;;;2.92;1.02;;;15.00;1.00;;;;;;5471364;26;20010;-78
2024/04/11 01:21:41;;;;;;;1.58;0.90;;;15.00;1.00;;;;;;5471418;26;19990;-78
2024/04/11 01:24:07;;;;;;;2.55;0.75;;;15.00;1.00;;;;;;5459098;26;20395;-78
2024/04/11 01:26:35;;;;;;;2.67;0.90;;;15.00;1.00;;;;;;5472954;26;20064;-78
2024/04/11 01:29:02;;;;;;;2.42;1.05;;;15.00;1.00;;;;;;5464526;26;19999;-78
2024/04/11 01:31:28;;;;;;;2.45;1.10;;;15.00;1.00;;;;;;5470554;26;19994;-78
2024/04/11 01:33:54;;;;;;;1.05;0.90;;;15.00;1.00;;;;;;5465287;26;19995;-78
2024/04/11 01:36:20;;;;;;;1.90;0.90;;;15.00;1.00;;;;;;5472026;26;20211;-78
2024/04/11 01:38:46;;;;;;;1.35;0.90;;;15.10;99.90;;;;;;5464745;26;20070;-78
2024/04/11 01:41:12;;;;;;;3.28;0.90;;;15.10;1.00;;;;;;5460246;26;20641;-78
2024/04/11 01:43:38;;;;;;;2.80;0.93;;;15.00;1.00;;;;;;5466446;26;19994;-78
2024/04/11 01:46:04;;;;;;;1.70;1.20;;;15.00;1.00;;;;;;5470279;26;19998;-78
2024/04/11 01:48:30;;;;;;;0.93;0.88;;;15.00;99.90;;;;;;5460104;26;20005;-78
2024/04/11 01:50:57;;;;;;;0.95;0.80;;;15.00;1.00;;;;;;5462665;26;20002;-78
2024/04/11 01:53:23;;;;;;;3.03;1.05;;;15.00;1.00;;;;;;5469512;26;19991;-78
2024/04/11 01:55:49;;;;;;;4.63;1.10;;;15.00;1.00;;;;;;5466431;26;19999;-78
2024/04/11 01:58:18;;;;;;;3.33;0.90;;;14.90;1.00;;;;;;5468234;26;20001;-78
2024/04/11 02:00:47;;;;;;;0.90;0.80;;;14.90;1.00;;;;;;5468204;26;19995;-78
2024/04/11 02:03:13;;;;;;;1.48;1.15;;;14.90;1.00;;;;;;5463454;26;20432;-78
2024/04/11 02:05:41;;;;;;;1.00;0.90;;;14.90;1.00;;;;;;5467669;26;20401;-78
2024/04/11 02:08:08;;;;;;;1.20;1.00;;;14.80;1.00;;;;;;5466511;26;19999;-78
2024/04/11 02:10:35;;;;;;;1.00;0.70;;;14.80;1.00;;;;;;5462904;26;19995;-78
2024/04/11 02:13:01;;;;;;;2.58;1.02;;;14.80;1.00;;;;;;5464821;26;20007;-78
2024/04/11 02:15:27;;;;;;;2.88;0.80;;;14.80;1.00;;;;;;5470239;26;20009;-78
2024/04/11 02:17:53;;;;;;;1.42;0.88;;;14.80;1.00;;;;;;5464373;26;20003;-78
2024/04/11 02:20:20;;;;;;;2.15;1.15;;;14.80;99.90;;;;;;5468491;26;20336;-78
2024/04/11 02:22:46;;;;;;;5.63;1.38;;;14.80;99.90;;;;;;5467148;26;20002;-78
2024/04/11 02:25:13;;;;;;;2.83;1.00;;;14.80;99.90;;;;;;5469329;26;19994;-78
2024/04/11 02:27:40;;;;;;;2.15;1.00;;;14.80;99.90;;;;;;5464274;26;20021;-78
2024/04/11 02:30:09;;;;;;;1.85;0.60;;;14.80;99.90;;;;;;5469318;26;20006;-78
2024/04/11 02:32:41;;;;;;;6.35;1.20;;;14.80;99.90;;;;;;5466395;26;20002;-78
2024/04/11 02:35:11;;;;;;;1.88;0.95;;;14.80;99.90;;;;;;5467986;26;20022;-78
2024/04/11 02:37:40;;;;;;;1.15;0.70;;;14.80;99.90;;;;;;5466163;26;20380;-78
2024/04/11 02:40:09;;;;;;;2.58;0.65;;;14.80;99.90;;;;;;5466445;26;20062;-78
2024/04/11 02:42:38;;;;;;;1.70;0.90;;;14.80;99.90;;;;;;5466964;26;20403;-78
2024/04/11 02:45:14;;;;;;;1.58;0.65;;;14.70;1.00;;;;;;5467550;26;20009;-78
2024/04/11 02:47:41;;;;;;;2.13;0.82;;;14.70;99.90;;;;;;5464593;26;20431;-78
2024/04/11 02:50:15;;;;;;;0.82;0.80;;;14.70;1.00;;;;;;5458017;26;20419;-78
2024/04/11 02:52:41;;;;;;;2.33;0.80;;;14.60;1.00;;;;;;5461660;26;20005;-77
2024/04/11 02:55:14;;;;;;;0.98;0.80;;;14.60;41.30;;;;;;5466524;26;20375;-78
2024/04/11 02:57:42;;;;;;;1.95;0.60;;;14.50;99.90;;;;;;5463527;26;20255;-78
2024/04/11 03:00:09;;;;;;;1.05;0.70;;;14.40;99.90;;;;;;5471821;26;20448;-78
2024/04/11 03:02:35;;;;;;;0.73;0.73;;;14.40;99.90;;;;;;5467993;26;19991;-78
2024/04/11 03:05:05;;;;;;;0.80;0.80;;;14.40;99.90;;;;;;5472363;26;20009;-78
2024/04/11 03:07:32;;;;;;;3.45;1.00;;;14.30;47.30;;;;;;5469997;26;20460;-78
2024/04/11 03:09:57;;;;;;;2.95;1.00;;;14.30;99.90;;;;;;5473319;26;20006;-78
2024/04/11 03:12:23;;;;;;;1.67;1.08;;;14.30;99.90;;;;;;5467300;26;20006;-78
2024/04/11 03:14:49;;;;;;;1.63;1.00;;;14.20;99.90;;;;;;5472626;26;20001;-78
2024/04/11 03:17:15;;;;;;;1.90;1.00;;;14.20;99.90;;;;;;5466249;26;20432;-78
2024/04/11 03:19:41;;;;;;;2.10;1.02;;;14.10;99.90;;;;;;5467862;26;20006;-78
2024/04/11 03:22:07;;;;;;;1.70;1.45;;;14.10;99.90;;;;;;5474818;26;19994;-78
2024/04/11 03:24:33;;;;;;;4.70;1.35;;;14.10;99.90;;;;;;5468644;26;19998;-78
2024/04/11 03:27:02;;;;;;;1.23;1.00;;;14.10;99.90;;;;;;5474101;26;20005;-78
2024/04/11 03:29:31;;;;;;;2.13;1.00;;;14.20;99.90;;;;;;5466657;26;19994;-78
2024/04/11 03:31:57;;;;;;;3.13;1.00;;;14.10;99.90;;;;;;5472707;26;19990;-78
2024/04/11 03:34:23;;;;;;;2.97;0.93;;;14.10;99.90;;;;;;5458606;26;20071;-78
2024/04/11 03:36:49;;;;;;;1.38;0.95;;;14.10;99.90;;;;;;5472004;26;20524;-78
2024/04/11 03:39:20;;;;;;;4.45;1.35;;;14.10;99.90;;;;;;5469202;26;19999;-78
2024/04/11 03:41:52;;;;;;;2.38;1.10;;;14.10;99.90;;;;;;5474149;26;19990;-78
2024/04/11 03:44:18;;;;;;;1.65;1.08;;;14.20;99.90;;;;;;5461506;26;20001;-78
2024/04/11 03:46:44;;;;;;;2.40;0.95;;;14.10;99.90;;;;;;5472626;26;20001;-78
2024/04/11 03:49:10;;;;;;;2.42;0.75;;;14.10;99.90;;;;;;5460274;26;19986;-78
2024/04/11 03:51:39;;;;;;;4.00;1.40;;;14.00;99.90;;;;;;5468135;26;20003;-78
2024/04/11 03:54:05;;;;;;;1.05;0.98;;;14.00;99.90;;;;;;5472481;26;19994;-78
2024/04/11 03:56:32;;;;;;;5.25;1.20;;;13.90;99.90;;;;;;5468127;26;21006;-78
2024/04/11 03:58:58;;;;;;;1.08;0.98;;;13.90;99.90;;;;;;5471936;26;20066;-78
2024/04/11 04:01:26;;;;;;;1.45;0.90;;;13.90;99.90;;;;;;5469002;26;20009;-78
2024/04/11 04:03:55;;;;;;;1.73;1.20;;;13.90;99.90;;;;;;5467851;26;20338;-78
2024/04/11 04:06:21;;;;;;;4.07;1.30;;;13.90;99.90;;;;;;5474148;26;19998;-78
2024/04/11 04:08:48;;;;;;;2.40;1.48;;;13.90;99.90;;;;;;5466909;26;20066;-78
2024/04/11 04:11:16;;;;;;;1.30;1.08;;;13.80;99.90;;;;;;5466265;26;20068;-78
2024/04/11 04:13:42;;;;;;;1.33;1.05;;;13.90;99.90;;;;;;5471543;26;20379;-78
2024/04/11 04:16:14;;;;;;;2.78;1.10;;;13.80;99.90;;;;;;5467996;26;19995;-78
2024/04/11 04:18:47;;;;;;;;;;;13.80;99.90;;;;;;5458787;26;20472;-78
2024/04/11 04:21:13;;;;;;;;;;;13.80;99.90;;;;;;5461288;26;19932;-78
2024/04/11 04:23:42;;;;;;;1.05;0.98;;;13.70;99.90;;;;;;5471602;26;19924;-78
2024/04/11 04:26:09;;;;;;;1.10;1.00;;;13.70;99.90;;;;;;5467824;26;19999;-78
2024/04/11 04:28:39;;;;;;;2.35;1.15;;;13.80;99.90;;;;;;5473376;26;20001;-78
2024/04/11 04:31:17;;;;;;;1.65;1.30;;;13.70;99.90;;;;;;5468488;26;19995;-78
2024/04/11 04:33:47;;;;;;;1.20;1.10;;;13.70;99.90;;;;;;5470310;26;20444;-77
2024/04/11 04:36:15;;;;;;;1.20;1.00;;;13.80;99.90;;;;;;5471571;26;20334;-77
2024/04/11 04:38:49;;;;;;;1.48;1.00;;;13.80;99.90;;;;;;5469472;26;20005;-78
2024/04/11 04:41:17;;;;;;;3.45;1.75;;;13.80;99.90;;;;;;5471259;26;20339;-78
2024/04/11 04:43:45;;;;;;;9.60;1.33;;;13.80;99.90;;;;;;5467315;26;20437;-78
2024/04/11 04:46:13;;;;;;;2.30;1.17;;;13.80;99.90;;;;;;5471315;26;19998;-78
2024/04/11 04:48:39;;;;;;;1.40;1.00;;;13.80;99.90;;;;;;5466868;26;19999;-78
2024/04/11 04:51:04;;;;;;;1.67;1.17;;;13.80;99.90;;;;;;5466744;26;19995;-78
2024/04/11 04:53:31;;;;;;;2.47;1.15;;;13.80;99.90;;;;;;5458173;26;20017;-78
2024/04/11 04:55:57;;;;;;;1.52;1.02;;;13.90;99.90;;;;;;5459616;26;20029;-78
2024/04/11 04:58:22;;;;;;;1.45;1.35;;;13.90;99.90;;;;;;5490667;26;20005;-78
2024/04/11 05:00:48;;;;;;;3.13;1.33;;;13.90;99.90;;;;;;5463437;26;20003;-78
2024/04/11 05:03:14;;;;;;;1.00;0.90;;;13.90;99.90;;;;;;5452295;26;20044;-78
2024/04/11 05:05:41;;;;;;;2.15;1.58;;;14.00;99.90;;;;;;5451495;26;20006;-78
2024/04/11 05:08:07;;;;;;;3.03;1.63;;;14.00;99.90;;;;;;5444423;26;20000;-77
2024/04/11 05:10:40;;;;;;;2.10;1.10;;;14.00;99.90;;;;;;5440274;26;20100;-78
2024/04/11 05:13:09;;;;;;;4.65;1.30;;;14.10;99.90;;;;;;5439407;26;20391;-78
2024/04/11 05:15:45;;;;;;;1.30;1.10;;;14.10;99.90;;;;;;5436594;26;20097;-78
2024/04/11 05:18:12;;;;;;;1.65;1.00;;;14.10;99.90;;;;;;5434740;26;20073;-78
2024/04/11 05:20:38;;;;;;;1.05;0.85;;;14.10;99.90;;;;;;5448589;26;20052;-78
2024/04/11 05:23:07;;;;;;;1.00;0.90;;;14.20;99.90;;;;;;5443481;26;20014;-78
2024/04/11 05:25:33;;;;;;;2.25;0.95;;;14.20;99.90;;;;;;5437466;26;20345;-78
2024/04/11 05:28:00;;;;;;;1.30;1.20;;;14.20;99.90;;;;;;5434940;26;20009;-78
2024/04/11 05:30:27;;;;;;;1.25;1.15;;;14.30;99.90;;;;;;5430093;26;20010;-78
2024/04/11 05:32:55;;;;;;;1.25;1.00;;;14.30;99.90;;;;;;5430140;26;20080;-78
2024/04/11 05:35:23;;;;;;;1.58;1.00;;;14.40;99.90;;;;;;5489690;26;20415;-78
2024/04/11 05:37:53;;;;;;;2.08;1.00;;;14.40;99.90;;;;;;5482813;26;19999;-78
2024/04/11 05:40:21;;;;;;;1.05;0.90;;;14.40;99.90;;;;;;5464131;26;20067;-78
2024/04/11 05:42:47;;;;;;;2.15;1.00;;;14.40;99.90;;;;;;5465052;26;20024;-78
2024/04/11 05:45:19;;;;;;;1.88;1.20;;;14.50;99.90;;;;;;5459544;26;20001;-78
2024/04/11 05:47:48;;;;;;;0.80;0.80;;;14.50;99.90;;;;;;5441036;26;20464;-78
2024/04/11 05:50:17;;;;;;;2.45;0.80;;;14.50;99.90;;;;;;5458752;26;20440;-78
2024/04/11 05:52:43;;;;;;;1.25;0.93;;;14.60;99.90;;;;;;5470928;26;20003;-78
2024/04/11 05:55:11;;;;;;;3.80;1.35;;;14.60;99.90;;;;;;5470437;26;19998;-78
2024/04/11 05:57:37;;;;;;;1.30;1.10;;;14.60;99.90;;;;;;5466303;26;19991;-78
2024/04/11 06:00:08;;;;;;;1.10;0.73;;;14.60;99.90;;;;;;5464858;26;20034;-78
2024/04/11 06:02:45;;;;;;;1.60;1.40;;;14.60;99.90;;;;;;5468186;26;20026;-78
2024/04/11 06:05:11;;;;;;;3.00;1.17;;;14.70;99.90;;;;;;5469122;26;19995;-78
2024/04/11 06:07:39;;;;;;;1.42;1.10;;;14.70;99.90;;;;;;5453211;26;20402;-78
2024/04/11 06:10:05;;;;;;;3.13;1.17;;;14.80;99.90;;;;;;5462271;26;20471;-78
2024/04/11 06:12:35;;;;;;;1.15;0.95;;;14.80;99.90;;;;;;5459608;26;19998;-78
2024/04/11 06:15:00;;;;;;;2.45;1.10;;;14.90;99.90;;;;;;5478622;26;20004;-79
2024/04/11 06:17:29;;;;;;;1.45;1.08;;;14.90;99.90;;;;;;5484029;26;20006;-78
2024/04/11 06:20:01;;;;;;;0.85;0.82;;;15.00;99.90;;;;;;5456869;26;20003;-78
2024/04/11 06:22:28;;;;;;;1.67;0.90;;;15.10;99.90;;;;;;5489356;26;19990;-78
2024/04/11 06:24:53;;;;;;;6.15;1.30;;;15.10;91.20;;;;;;5489002;26;19994;-78
2024/04/11 06:27:19;;;;;;;1.10;1.00;;;15.20;77.90;;;;;;5456799;26;20493;-78
2024/04/11 06:29:45;;;;;;;2.17;0.95;;;15.30;99.90;;;;;;5454563;26;20003;-78
2024/04/11 06:32:15;;;;;;;1.42;0.95;;;15.40;25.60;;;;;;5474445;26;19997;-78
2024/04/11 06:34:41;;;;;;;3.28;1.00;;;15.40;16.40;;;;;;5492640;26;19994;-78
2024/04/11 06:37:11;;;;;;;2.33;1.02;;;15.50;30.40;;;;;;5492540;26;20002;-79
2024/04/11 06:39:38;;;;;;;0.93;0.93;;;15.50;1.00;;;;;;5469645;26;20057;-78
2024/04/11 06:42:13;;;;;;;3.65;1.40;;;15.60;10.50;;;;;;5466401;26;19995;-78
2024/04/11 06:44:40;;;;;;;2.80;1.20;;;15.60;27.50;;;;;;5456376;26;19998;-78
2024/04/11 06:47:07;;;;;;;1.55;1.40;;;15.60;1.00;;;;;;5454155;26;20341;-79
2024/04/11 06:49:35;;;;;;;3.88;1.30;;;15.60;13.20;;;;;;5464427;26;20009;-78
2024/04/11 06:52:01;;;;;;;3.85;1.10;;;15.70;99.90;;;;;;5476536;26;20156;-78
2024/04/11 06:54:29;;;;;;;3.00;1.10;;;15.70;43.80;;;;;;5492490;26;20073;-78
2024/04/11 06:56:57;;;;;;;2.10;1.20;;;15.70;99.90;;;;;;5490707;26;19998;-79
2024/04/11 06:59:24;;;;;;;5.35;1.20;;;15.80;99.90;;;;;;5479439;26;19999;-78
2024/04/11 07:01:51;;;;;;;4.47;1.25;;;15.70;99.90;;;;;;5453938;26;19991;-78
2024/04/11 07:04:17;;;;;;;1.52;1.00;;;15.80;92.90;;;;;;5455745;26;20029;-78
2024/04/11 07:06:46;;;;;;;4.43;1.00;;;15.80;99.90;;;;;;5490584;26;20030;-78
2024/04/11 07:09:12;;;;;;;2.40;1.23;;;15.80;99.90;;;;;;5490231;26;20009;-78
2024/04/11 07:11:41;;;;;;;2.97;1.30;;;15.80;99.90;;;;;;5464647;26;19991;-78
2024/04/11 07:14:15;;;;;;;3.45;1.42;;;15.90;99.90;;;;;;5460385;26;20002;-78
2024/04/11 07:16:44;;;;;;;1.60;1.27;;;16.00;1.00;;;;;;5454014;26;20018;-78
2024/04/11 07:19:11;;;;;;;1.52;1.38;;;16.00;27.70;;;;;;5452366;26;20498;-78
2024/04/11 07:21:38;;;;;;;1.58;1.23;;;16.00;99.90;;;;;;5470254;26;20005;-78
2024/04/11 07:24:05;;;;;;;4.65;1.30;;;16.00;99.90;;;;;;5463670;26;20017;-78
2024/04/11 07:26:36;;;;;;;4.68;1.40;;;16.10;71.70;;;;;;5458757;26;20038;-78
2024/04/11 07:29:05;;;;;;;4.20;1.80;;;16.20;99.90;;;;;;5455501;26;20019;-78
2024/04/11 07:31:36;;;;;;;2.35;1.60;;;16.20;99.90;;;;;;5473692;26;19994;-78
2024/04/11 07:34:02;;;;;;;1.67;1.50;;;16.20;99.90;;;;;;5467791;26;20064;-78
2024/04/11 07:36:30;;;;;;;1.88;1.33;;;16.20;61.80;;;;;;5462584;26;19999;-78
2024/04/11 07:38:57;;;;;;;5.95;1.40;;;16.10;99.90;;;;;;5467024;26;20013;-78
2024/04/11 07:41:27;;;;;;;4.88;1.88;;;16.20;99.90;;;;;;5469370;26;20023;-78
2024/04/11 07:43:57;;;;;;;3.72;1.60;;;16.30;1.00;;;;;;5472085;26;20013;-78
2024/04/11 07:46:33;;;;;;;6.82;1.70;;;16.30;99.90;;;;;;5465839;26;19995;-78
2024/04/11 07:48:59;;;;;;;5.70;1.80;;;16.30;99.90;;;;;;5465761;26;20441;-78
2024/04/11 07:51:28;;;;;;;4.18;1.60;;;16.20;1.00;;;;;;5470339;26;20030;-78
2024/04/11 07:53:55;;;;;;;3.25;1.75;;;16.30;99.90;;;;;;5465559;26;20006;-78
2024/04/11 07:56:25;;;;;;;3.10;1.70;;;16.30;99.90;;;;;;5474445;26;19995;-78
2024/04/11 07:58:55;;;;;;;3.33;1.73;;;16.50;99.90;;;;;;5472752;26;19990;-78
2024/04/11 08:01:22;;;;;;;3.15;1.75;;;16.50;1.00;;;;;;5466871;26;20002;-78
2024/04/11 08:03:49;;;;;;;5.28;1.65;;;16.40;14.60;;;;;;5468970;26;20005;-78
2024/04/11 08:06:16;;;;;;;4.53;1.90;;;16.40;99.90;;;;;;5475117;26;19995;-78
2024/04/11 08:08:42;;;;;;;3.35;1.70;;;16.50;99.90;;;;;;5472681;26;20076;-78
2024/04/11 08:11:10;;;;;;;2.17;1.58;;;16.60;99.90;;;;;;5472426;26;20055;-78
2024/04/11 08:13:38;;;;;;;2.40;1.88;;;16.60;1.00;;;;;;5468161;26;20002;-77
2024/04/11 08:16:07;;;;;;;2.53;1.55;;;16.60;1.00;;;;;;5465133;26;20363;-78
2024/04/11 08:18:34;;;;;;;6.45;2.20;;;16.70;99.90;;;;;;5468952;26;20010;-78
2024/04/11 08:20:59;;;;;;;3.20;1.50;;;16.80;99.90;;;;;;5465557;26;20062;-78
2024/04/11 08:23:25;;;;;;;4.68;1.85;;;16.90;52.00;;;;;;5472469;26;20328;-78
2024/04/11 08:25:55;;;;;;;6.85;1.90;;;16.90;99.90;;;;;;5467385;26;20333;-78
2024/04/11 08:28:24;;;;;;;4.13;1.80;;;17.00;1.00;;;;;;5472400;26;20001;-78
2024/04/11 08:30:51;;;;;;;6.68;1.65;;;17.00;1.00;;;;;;5459444;26;20001;-78
2024/04/11 08:33:20;;;;;;;3.60;2.20;;;17.10;1.00;;;;;;5468243;26;20007;-77
2024/04/11 08:35:47;;;;;;;5.60;2.28;;;17.10;99.90;;;;;;5481582;26;19990;-78
2024/04/11 08:38:15;;;;;;;7.03;2.00;;;17.10;1.00;;;;;;5469099;26;20418;-78
2024/04/11 08:40:44;;;;;;;3.58;2.10;;;17.10;1.00;;;;;;5459900;26;20064;-78
2024/04/11 08:43:12;;;;;;;2.22;1.90;;;17.10;1.00;;;;;;5453403;26;20317;-78
2024/04/11 08:45:43;;;;;;;3.78;2.05;;;17.00;99.90;;;;;;5465551;26;20022;-78
2024/04/11 08:48:10;;;;;;;7.70;2.35;;;17.10;99.90;;;;;;5465471;26;20059;-78
2024/04/11 08:50:41;;;;;;;2.95;2.42;;;17.20;99.90;;;;;;5430088;26;20353;-78
2024/04/11 08:53:09;;;;;;;5.65;2.58;;;17.20;26.60;;;;;;5437136;26;20071;-78
2024/04/11 08:55:40;;;;;;;6.97;2.88;;;17.30;99.90;;;;;;5472758;26;19998;-78
2024/04/11 08:58:08;;;;;;;4.22;2.10;;;17.40;99.90;;;;;;5452640;26;20003;-78
2024/04/11 09:00:46;;;;;;;5.10;2.50;;;17.40;99.90;;;;;;5471799;26;20006;-78
2024/04/11 09:03:13;;;;;;;8.70;3.15;;;17.50;90.40;;;;;;5469045;26;20320;-78
2024/04/11 09:05:38;;;;;;;6.65;2.58;;;17.50;99.90;;;;;;5454693;26;20026;-78
2024/04/11 09:08:05;;;;;;;7.47;2.70;;;17.50;59.50;;;;;;5472370;26;20005;-78
2024/04/11 09:10:31;;;;;;;4.97;2.97;;;17.60;99.90;;;;;;5479531;26;20073;-78
2024/04/11 09:12:59;;;;;;;5.45;2.60;;;17.70;99.90;;;;;;5457729;26;20011;-78
2024/04/11 09:15:25;;;;;;;6.63;2.53;;;17.80;99.90;;;;;;5472642;26;19990;-78
2024/04/11 09:17:55;;;;;;;8.65;3.13;;;17.70;99.90;;;;;;5451981;26;20017;-78
2024/04/11 09:20:24;;;;;;;8.43;2.90;;;17.70;99.90;;;;;;5451975;26;20002;-77
2024/04/11 09:22:59;;;;;;;8.18;2.85;;;17.60;99.90;;;;;;5474024;26;20009;-78
2024/04/11 09:25:30;;;;;;;3.17;2.28;;;17.60;54.70;;;;;;5470362;26;20018;-78
2024/04/11 09:27:59;;;;;;;3.95;2.30;;;17.60;83.90;;;;;;5464838;26;20480;-78
2024/04/11 09:30:30;;;;;;;8.65;3.35;;;17.60;99.90;;;;;;5458917;26;19999;-78
2024/04/11 09:33:08;;;;;;;5.00;2.35;;;17.70;99.90;;;;;;5455728;26;19998;-78
2024/04/11 09:35:46;;;;;;;5.78;2.80;;;17.80;99.90;;;;;;5464128;26;19990;-78
2024/04/11 09:38:12;;;;;;;10.10;2.72;;;17.90;99.90;;;;;;5471803;26;19998;-78
2024/04/11 09:40:53;;;;;;;5.07;3.25;;;17.90;99.90;;;;;;5469762;26;20304;-78
2024/04/11 09:43:27;;;;;;;5.53;3.30;;;17.90;99.90;;;;;;5462315;26;19997;-78
2024/04/11 09:45:56;;;;;;;7.60;2.83;;;18.10;99.90;;;;;;5469888;26;20002;-78
2024/04/11 09:48:29;;;;;;;4.65;2.63;;;18.10;99.90;;;;;;5462352;26;20022;-78
2024/04/11 09:50:56;;;;;;;2.72;2.53;;;18.10;1.00;;;;;;5463883;26;20006;-78
2024/04/11 09:53:26;;;;;;;6.20;3.13;;;18.00;1.00;;;;;;5470808;26;19995;-78
2024/04/11 09:56:05;;;;;;;6.35;2.92;;;18.00;99.90;;;;;;5465504;26;19995;-78
2024/04/11 09:58:38;;;;;;;5.15;2.75;;;18.10;99.90;;;;;;5483900;25;19992;-78
2024/04/11 10:01:16;;;;;;;10.43;3.65;;;18.10;1.00;;;;;;5469584;26;19998;-78
2024/04/11 10:03:45;;;;;;;8.88;3.70;;;18.20;3.30;;;;;;5465872;26;19994;-77
2024/04/11 10:06:16;;;;;;;9.32;3.20;;;18.30;1.00;;;;;;5470763;26;20066;-77
2024/04/11 10:08:47;;;;;;;4.03;2.75;;;18.30;99.90;;;;;;5464411;26;19998;-77
2024/04/11 10:11:17;;;;;;;5.75;2.53;;;18.30;12.00;;;;;;5458446;26;20009;-78
2024/04/11 10:13:49;;;;;;;7.97;3.97;;;18.50;99.90;;;;;;5459004;26;20432;-78
2024/04/11 10:16:22;;;;;;;3.70;3.00;;;18.70;99.90;;;;;;5461422;26;19999;-78
2024/04/11 10:19:04;;;;;;;6.90;3.15;;;18.80;1.00;;;;;;5464327;26;20445;-78
2024/04/11 10:21:32;;;;;;;;;;;18.90;1.00;;;;;;5466492;26;20429;-78
2024/04/11 10:23:58;;;;;;;4.38;2.78;;;18.90;99.90;;;;;;5469793;26;19931;-78
2024/04/11 10:26:32;;;;;;;25.30;3.80;;;18.70;99.90;;;;;;5464292;26;19991;-77
2024/04/11 10:29:10;;;;;;;6.63;3.38;;;18.80;1.00;;;;;;5458412;26;19994;-78
2024/04/11 10:31:36;;;;;;;10.70;3.50;;;18.80;1.00;;;;;;5468081;26;20001;-77
2024/04/11 10:34:10;;;;;;;7.65;3.13;;;18.90;99.90;;;;;;5467573;26;19994;-78
2024/04/11 10:36:42;;;;;;;10.27;3.10;;;18.90;99.90;;;;;;5469442;26;20075;-77
2024/04/11 10:39:08;;;;;;;14.73;3.90;;;18.80;47.60;;;;;;5464744;26;20501;-78
2024/04/11 10:41:35;;;;;;;5.20;3.72;;;18.90;1.00;;;;;;5466784;26;20066;-78
2024/04/11 10:44:05;;;;;;;5.88;2.50;;;19.00;1.00;;;;;;5470036;26;20002;-77
2024/04/11 10:46:33;;;;;;;5.80;3.08;;;19.10;99.90;;;;;;5458257;26;19995;-77
2024/04/11 10:49:12;;;;;;;7.97;2.75;;;19.20;99.90;;;;;;5462693;26;20066;-78
2024/04/11 10:51:41;;;;;;;4.22;2.60;;;19.40;99.90;;;;;;5460029;26;20417;-78
2024/04/11 10:54:11;;;;;;;3.25;2.53;;;19.40;99.90;;;;;;5468371;26;20332;-78
2024/04/11 10:56:43;;;;;;;5.50;2.45;;;19.60;99.90;;;;;;5467012;26;19995;-78
2024/04/11 10:59:22;;;;;;;8.88;3.13;;;19.70;99.90;;;;;;5466574;26;20001;-78
2024/04/11 11:02:00;;;;;;;6.55;2.78;;;19.80;99.90;;;;;;5470664;26;20397;-78
2024/04/11 11:04:26;;;;;;;5.68;3.13;;;19.90;99.90;;;;;;5460122;26;20338;-78
2024/04/11 11:06:54;;;;;;;3.33;2.80;;;19.90;52.80;;;;;;5470666;26;19998;-78
2024/04/11 11:09:22;;;;;;;3.65;2.58;;;20.00;99.90;;;;;;5465058;26;20299;-78
2024/04/11 11:11:49;;;;;;;10.43;3.00;;;20.00;99.90;;;;;;5470513;26;19990;-77
2024/04/11 11:14:20;;;;;;;2.95;2.75;;;20.10;99.90;;;;;;5468943;26;20035;-77
2024/04/11 11:16:47;;;;;;;2.97;2.67;;;20.10;19.90;;;;;;5466066;26;20405;-77
2024/04/11 11:19:16;;;;;;;5.97;3.08;;;20.00;97.80;;;;;;5461927;26;20484;-78
2024/04/11 11:21:50;;;;;;;5.32;3.90;;;20.10;64.10;;;;;;5473089;26;20002;-78
2024/04/11 11:24:23;;;;;;;6.68;3.30;;;20.30;57.50;;;;;;5471661;26;20010;-77
2024/04/11 11:26:56;;;;;;;4.45;2.70;;;20.30;42.80;;;;;;5469802;26;20027;-78
2024/04/11 11:29:26;;;;;;;9.38;2.70;;;20.30;99.90;;;;;;5472350;26;19997;-77
2024/04/11 11:32:02;;;;;;;4.63;2.35;;;20.40;99.90;;;;;;5459265;26;19998;-78
2024/04/11 11:34:30;;;;;;;2.78;2.20;;;20.50;99.90;;;;;;5465188;26;20071;-78
2024/04/11 11:37:03;;;;;;;7.15;2.35;;;20.60;99.90;;;;;;5467949;26;20010;-78
2024/04/11 11:39:42;;;;;;;5.38;2.65;;;20.60;99.90;;;;;;5471333;26;20000;-78
2024/04/11 11:42:26;;;;;;;7.50;2.80;;;20.70;99.90;;;;;;5473881;26;19994;-78
2024/04/11 11:47:35;;;;;;;4.03;2.75;;;20.90;99.90;;;;;;5469331;26;20424;-78
2024/04/11 11:50:19;;;;;;;3.83;3.05;;;21.00;99.90;;;;;;5466767;26;19994;-78
2024/04/11 11:52:49;;;;;;;3.65;2.80;;;21.00;1.00;;;;;;5466767;26;20063;-78
2024/04/11 11:55:18;;;;;;;5.15;2.92;;;21.10;45.30;;;;;;5469127;26;20429;-78
2024/04/11 11:57:49;;;;;;;6.82;2.78;;;21.10;24.70;;;;;;5469649;26;19995;-78
2024/04/11 12:00:26;;;;;;;7.65;2.97;;;21.10;98.00;;;;;;5467657;26;20038;-77
2024/04/11 12:02:56;;;;;;;7.13;3.03;;;21.40;99.90;;;;;;5460577;26;19999;-77
2024/04/11 12:05:24;;;;;;;8.25;3.20;;;21.50;66.00;;;;;;5454948;26;19995;-78
2024/04/11 12:08:05;;;;;;;3.85;3.15;;;21.50;94.00;;;;;;5473516;26;19998;-77
2024/04/11 12:13:42;;;;;;;12.32;3.75;;;21.80;59.10;;;;;;5463006;26;20006;-77
2024/04/11 12:16:08;;;;;;;7.47;4.07;;;21.80;17.80;;;;;;5460180;26;20066;-77
2024/04/11 12:18:34;;;;;;;6.60;3.38;;;21.90;16.00;;;;;;5462800;26;20051;-78
2024/04/11 12:21:02;;;;;;;7.05;3.55;;;21.90;15.40;;;;;;5467076;26;19999;-77
2024/04/11 12:23:28;;;;;;;9.32;3.67;;;22.00;73.70;;;;;;5473242;26;19990;-77
2024/04/11 12:25:58;;;;;;;7.93;3.20;;;22.00;14.70;;;;;;5466980;26;20010;-77
2024/04/11 12:28:25;;;;;;;6.00;4.00;;;22.00;3.40;;;;;;5467503;26;20059;-77
2024/04/11 12:31:00;;;;;;;5.85;3.85;;;21.90;1.00;;;;;;5473767;26;20022;-77
2024/04/11 12:33:27;;;;;;;5.15;3.30;;;22.00;1.00;;;;;;5462890;26;20445;-77
2024/04/11 12:35:56;;;;;;;5.38;3.10;;;22.10;10.80;;;;;;5470793;26;20487;-77
2024/04/11 12:38:24;;;;;;;4.03;3.60;;;22.20;4.30;;;;;;5466662;26;20436;-77
2024/04/11 12:40:50;;;;;;;4.47;3.08;;;22.20;1.00;;;;;;5462343;26;20003;-78
2024/04/11 12:43:19;;;;;;;6.22;3.40;;;22.20;1.00;;;;;;5468275;26;19995;-77
2024/04/11 12:45:52;;;;;;;7.53;3.83;;;22.40;5.50;;;;;;5472666;26;19990;-77
2024/04/11 12:48:25;;;;;;;5.47;4.00;;;22.40;1.00;;;;;;5464277;26;19990;-77
2024/04/11 12:50:55;;;;;;;6.40;3.47;;;22.30;1.00;;;;;;5464409;26;20054;-77
2024/04/11 12:53:22;;;;;;;4.50;3.80;;;22.40;1.00;;;;;;5471987;26;20063;-77
2024/04/11 12:55:57;;;;;;;6.45;4.65;;;22.50;1.00;;;;;;5469089;26;19990;-77
2024/04/11 12:58:28;;;;;;;5.65;3.40;;;22.50;9.40;;;;;;5465148;26;20050;-77
2024/04/11 13:01:02;;;;;;;9.40;4.28;;;22.60;28.90;;;;;;5460052;26;20027;-77
2024/04/11 13:06:08;;;;;;;10.25;3.67;;;22.70;1.00;;;;;;5469031;26;19990;-77
2024/04/11 13:08:34;;;;;;;10.45;4.40;;;22.80;1.00;;;;;;5470988;26;20001;-77
2024/04/11 13:11:07;;;;;;;10.25;3.88;;;22.70;1.00;;;;;;5469449;26;20005;-77